CCA121 ZBAA-ZKPY
Flight info
| Callsign | CCA121 |
|---|---|
| Flight time | 1h 30m |
| Altitude | 37100 |
| Route | DOTRA5Y DOTRA B334 KAKAT W31 CHG A575 BIDIB A345 GASAN GAS21A |
| Aircraft | B38M/M-SDE1FGHILORVWXY/HB1 |
Departure
| Time | 2026-04-20 04:11 |
|---|---|
| Airport | Beijing Capital International Airport (ZBAA) |
Arrival
| Time | 2026-04-20 05:42 |
|---|---|
| Airport | Pyongyang Sunan International Airport (ZKPY) |
| Time | Latitude | Longitude | Altitude | Speed | Heading |
|---|---|---|---|---|---|
| 2026-04-20 03:33 | 40.07159 | 116.60514 | 126 ft | 0 kts | 83° |
| 2026-04-20 03:57 | 40.07158 | 116.60511 | 121 ft | 3 kts | 83° |
| 2026-04-20 03:57 | 40.07156 | 116.60482 | 122 ft | 3 kts | 86° |
| 2026-04-20 03:58 | 40.07155 | 116.60452 | 122 ft | 3 kts | 90° |
| 2026-04-20 03:58 | 40.07156 | 116.60422 | 122 ft | 3 kts | 98° |
| 2026-04-20 03:58 | 40.07161 | 116.60394 | 124 ft | 3 kts | 118° |
| 2026-04-20 03:58 | 40.07174 | 116.60376 | 123 ft | 3 kts | 169° |
| 2026-04-20 03:59 | 40.07177 | 116.60375 | 123 ft | 2 kts | 173° |
| 2026-04-20 04:03 | 40.07169 | 116.60377 | 121 ft | 4 kts | 173° |
| 2026-04-20 04:03 | 40.07113 | 116.60385 | 124 ft | 11 kts | 173° |
| 2026-04-20 04:03 | 40.07027 | 116.60399 | 125 ft | 14 kts | 173° |
| 2026-04-20 04:04 | 40.06929 | 116.60414 | 125 ft | 15 kts | 173° |
| 2026-04-20 04:04 | 40.06837 | 116.60429 | 124 ft | 11 kts | 171° |
| 2026-04-20 04:04 | 40.06803 | 116.60491 | 126 ft | 10 kts | 88° |
| 2026-04-20 04:04 | 40.06813 | 116.60596 | 125 ft | 14 kts | 83° |
| 2026-04-20 04:05 | 40.06827 | 116.60749 | 122 ft | 20 kts | 83° |
| 2026-04-20 04:05 | 40.06844 | 116.60933 | 124 ft | 21 kts | 83° |
| 2026-04-20 04:05 | 40.06862 | 116.61133 | 126 ft | 22 kts | 83° |
| 2026-04-20 04:05 | 40.06876 | 116.61280 | 123 ft | 13 kts | 83° |
| 2026-04-20 04:06 | 40.06872 | 116.61368 | 124 ft | 9 kts | 128° |
| 2026-04-20 04:06 | 40.06807 | 116.61390 | 124 ft | 11 kts | 175° |
| 2026-04-20 04:06 | 40.06703 | 116.61405 | 121 ft | 20 kts | 172° |
| 2026-04-20 04:06 | 40.06542 | 116.61430 | 122 ft | 25 kts | 173° |
| 2026-04-20 04:07 | 40.06358 | 116.61457 | 126 ft | 27 kts | 173° |
| 2026-04-20 04:07 | 40.06190 | 116.61486 | 125 ft | 24 kts | 174° |
| 2026-04-20 04:07 | 40.06034 | 116.61508 | 123 ft | 19 kts | 172° |
| 2026-04-20 04:07 | 40.05912 | 116.61528 | 123 ft | 13 kts | 173° |
| 2026-04-20 04:08 | 40.05858 | 116.61568 | 123 ft | 10 kts | 103° |
| 2026-04-20 04:08 | 40.05860 | 116.61646 | 124 ft | 9 kts | 83° |
| 2026-04-20 04:08 | 40.05886 | 116.61708 | 126 ft | 8 kts | 37° |
| 2026-04-20 04:08 | 40.05935 | 116.61750 | 122 ft | 7 kts | 20° |
| 2026-04-20 04:09 | 40.05988 | 116.61752 | 122 ft | 9 kts | 353° |
| 2026-04-20 04:09 | 40.06001 | 116.61750 | 124 ft | 0 kts | 353° |
| 2026-04-20 04:10 | 40.06008 | 116.61749 | 140 ft | 4 kts | 353° |
| 2026-04-20 04:10 | 40.06102 | 116.61735 | 125 ft | 30 kts | 353° |
| 2026-04-20 04:10 | 40.06549 | 116.61664 | 122 ft | 98 kts | 353° |
| 2026-04-20 04:10 | 40.07424 | 116.61525 | 127 ft | 154 kts | 352° |
| 2026-04-20 04:11 | 40.08549 | 116.61378 | 613 ft | 165 kts | 349° |
| 2026-04-20 04:11 | 40.09700 | 116.61195 | 1374 ft | 166 kts | 348° |
| 2026-04-20 04:11 | 40.10878 | 116.61225 | 2174 ft | 177 kts | 7° |
| 2026-04-20 04:11 | 40.12008 | 116.61885 | 2893 ft | 180 kts | 23° |
| 2026-04-20 04:12 | 40.13127 | 116.62716 | 3460 ft | 192 kts | 23° |
| 2026-04-20 04:12 | 40.14319 | 116.63604 | 4114 ft | 202 kts | 24° |
| 2026-04-20 04:12 | 40.15579 | 116.64569 | 4673 ft | 219 kts | 28° |
| 2026-04-20 04:12 | 40.16664 | 116.66197 | 4963 ft | 261 kts | 59° |
| 2026-04-20 04:13 | 40.17087 | 116.68613 | 5536 ft | 285 kts | 81° |
| 2026-04-20 04:13 | 40.17277 | 116.71212 | 5874 ft | 288 kts | 79° |
| 2026-04-20 04:13 | 40.17491 | 116.73814 | 5867 ft | 287 kts | 79° |
| 2026-04-20 04:13 | 40.17709 | 116.76410 | 5863 ft | 287 kts | 79° |
| 2026-04-20 04:14 | 40.17934 | 116.79005 | 5880 ft | 287 kts | 77° |
| 2026-04-20 04:14 | 40.18562 | 116.81397 | 5864 ft | 274 kts | 50° |
| 2026-04-20 04:14 | 40.19884 | 116.83078 | 5883 ft | 261 kts | 25° |
| 2026-04-20 04:14 | 40.20948 | 116.83775 | 5883 ft | 258 kts | 18° |
| 2026-04-20 04:15 | 40.22600 | 116.84717 | 5876 ft | 258 kts | 17° |
| 2026-04-20 04:15 | 40.24276 | 116.85625 | 6126 ft | 266 kts | 17° |
| 2026-04-20 04:15 | 40.25984 | 116.86524 | 7139 ft | 261 kts | 15° |
| 2026-04-20 04:15 | 40.27665 | 116.87395 | 8137 ft | 261 kts | 15° |
| 2026-04-20 04:16 | 40.29376 | 116.88270 | 8950 ft | 265 kts | 14° |
| 2026-04-20 04:16 | 40.31102 | 116.89145 | 9833 ft | 268 kts | 14° |
| 2026-04-20 04:16 | 40.32827 | 116.90016 | 10403 ft | 279 kts | 14° |
| 2026-04-20 04:16 | 40.34698 | 116.90958 | 10755 ft | 298 kts | 14° |
| 2026-04-20 04:17 | 40.36682 | 116.91959 | 11186 ft | 313 kts | 14° |
| 2026-04-20 04:17 | 40.38758 | 116.93007 | 11731 ft | 324 kts | 15° |
| 2026-04-20 04:17 | 40.40866 | 116.94071 | 12575 ft | 326 kts | 14° |
| 2026-04-20 04:17 | 40.43010 | 116.95153 | 13306 ft | 334 kts | 14° |
| 2026-04-20 04:18 | 40.45192 | 116.96255 | 14092 ft | 339 kts | 14° |
| 2026-04-20 04:18 | 40.47417 | 116.97379 | 14771 ft | 345 kts | 14° |
| 2026-04-20 04:18 | 40.49672 | 116.98519 | 15510 ft | 350 kts | 14° |
| 2026-04-20 04:18 | 40.52007 | 116.99290 | 16184 ft | 343 kts | 356° |
| 2026-04-20 04:19 | 40.54336 | 116.98947 | 16834 ft | 335 kts | 336° |
| 2026-04-20 04:19 | 40.56424 | 116.97644 | 17506 ft | 332 kts | 323° |
| 2026-04-20 04:19 | 40.58393 | 116.96030 | 18223 ft | 335 kts | 322° |
| 2026-04-20 04:19 | 40.60346 | 116.94342 | 18877 ft | 337 kts | 320° |
| 2026-04-20 04:20 | 40.62298 | 116.92598 | 19453 ft | 341 kts | 320° |
| 2026-04-20 04:20 | 40.64256 | 116.90821 | 20093 ft | 344 kts | 319° |
| 2026-04-20 04:20 | 40.66200 | 116.89036 | 20718 ft | 346 kts | 319° |
| 2026-04-20 04:20 | 40.68182 | 116.87205 | 21322 ft | 350 kts | 319° |
| 2026-04-20 04:21 | 40.70184 | 116.85348 | 21907 ft | 352 kts | 318° |
| 2026-04-20 04:21 | 40.72195 | 116.83478 | 22529 ft | 355 kts | 318° |
| 2026-04-20 04:21 | 40.74258 | 116.81654 | 23134 ft | 363 kts | 325° |
| 2026-04-20 04:21 | 40.76698 | 116.80570 | 23806 ft | 380 kts | 342° |
| 2026-04-20 04:22 | 40.79400 | 116.80449 | 24337 ft | 394 kts | 353° |
| 2026-04-20 04:22 | 40.82143 | 116.80569 | 24864 ft | 396 kts | 352° |
| 2026-04-20 04:22 | 40.84918 | 116.80686 | 25295 ft | 400 kts | 352° |
| 2026-04-20 04:22 | 40.87709 | 116.80820 | 25800 ft | 402 kts | 352° |
| 2026-04-20 04:23 | 40.90518 | 116.80962 | 26278 ft | 405 kts | 352° |
| 2026-04-20 04:23 | 40.93350 | 116.81108 | 26718 ft | 408 kts | 352° |
| 2026-04-20 04:23 | 40.96196 | 116.81256 | 27213 ft | 411 kts | 352° |
| 2026-04-20 04:23 | 40.99069 | 116.81405 | 27685 ft | 414 kts | 352° |
| 2026-04-20 04:24 | 41.01920 | 116.81553 | 28098 ft | 417 kts | 352° |
| 2026-04-20 04:24 | 41.04833 | 116.81706 | 28550 ft | 420 kts | 352° |
| 2026-04-20 04:24 | 41.07766 | 116.81860 | 28982 ft | 423 kts | 351° |
| 2026-04-20 04:24 | 41.10711 | 116.82013 | 29455 ft | 425 kts | 351° |
| 2026-04-20 04:25 | 41.13689 | 116.82169 | 29861 ft | 429 kts | 351° |
| 2026-04-20 04:25 | 41.16689 | 116.82326 | 30143 ft | 433 kts | 351° |
| 2026-04-20 04:25 | 41.19704 | 116.82485 | 30531 ft | 434 kts | 351° |
| 2026-04-20 04:25 | 41.22734 | 116.82644 | 30849 ft | 437 kts | 351° |
| 2026-04-20 04:26 | 41.25781 | 116.82804 | 31189 ft | 438 kts | 351° |
| 2026-04-20 04:26 | 41.28834 | 116.82964 | 31535 ft | 440 kts | 351° |
| 2026-04-20 04:26 | 41.31896 | 116.83126 | 31922 ft | 442 kts | 352° |
| 2026-04-20 04:26 | 41.34976 | 116.83288 | 32226 ft | 444 kts | 352° |
| 2026-04-20 04:27 | 41.38075 | 116.83451 | 32567 ft | 446 kts | 352° |
| 2026-04-20 04:27 | 41.41180 | 116.83615 | 32922 ft | 447 kts | 352° |
| 2026-04-20 04:27 | 41.44287 | 116.83780 | 33355 ft | 446 kts | 352° |
| 2026-04-20 04:27 | 41.47381 | 116.83943 | 33855 ft | 444 kts | 352° |
| 2026-04-20 04:28 | 41.50467 | 116.84106 | 34264 ft | 443 kts | 352° |
| 2026-04-20 04:28 | 41.53512 | 116.84267 | 34575 ft | 444 kts | 352° |
| 2026-04-20 04:28 | 41.56608 | 116.84431 | 34879 ft | 446 kts | 352° |
| 2026-04-20 04:28 | 41.59711 | 116.84596 | 35218 ft | 446 kts | 352° |
| 2026-04-20 04:29 | 41.62817 | 116.84769 | 35551 ft | 448 kts | 353° |
| 2026-04-20 04:29 | 41.65951 | 116.85522 | 35863 ft | 468 kts | 8° |
| 2026-04-20 04:29 | 41.68967 | 116.87377 | 36200 ft | 488 kts | 24° |
| 2026-04-20 04:29 | 41.71645 | 116.90296 | 36477 ft | 507 kts | 40° |
| 2026-04-20 04:30 | 41.73725 | 116.94175 | 36753 ft | 522 kts | 58° |
| 2026-04-20 04:30 | 41.75145 | 116.98684 | 37054 ft | 527 kts | 63° |
| 2026-04-20 04:30 | 41.78238 | 117.07554 | 37065 ft | 525 kts | 60° |
| 2026-04-20 04:31 | 41.81323 | 117.16435 | 37066 ft | 525 kts | 60° |
| 2026-04-20 04:31 | 41.84399 | 117.25337 | 37064 ft | 525 kts | 60° |
| 2026-04-20 04:32 | 41.87439 | 117.34165 | 37058 ft | 524 kts | 60° |
| 2026-04-20 04:32 | 41.90492 | 117.43058 | 37055 ft | 525 kts | 60° |
| 2026-04-20 04:33 | 41.93536 | 117.51958 | 37052 ft | 525 kts | 60° |
| 2026-04-20 04:33 | 41.96578 | 117.60875 | 37048 ft | 525 kts | 60° |
| 2026-04-20 04:34 | 41.99612 | 117.69801 | 37058 ft | 525 kts | 60° |
| 2026-04-20 04:34 | 42.02635 | 117.78721 | 37040 ft | 524 kts | 60° |
| 2026-04-20 04:35 | 42.05653 | 117.87652 | 37034 ft | 524 kts | 61° |
| 2026-04-20 04:35 | 42.08665 | 117.96597 | 37034 ft | 524 kts | 61° |
| 2026-04-20 04:36 | 42.13152 | 118.09973 | 37022 ft | 525 kts | 61° |
| 2026-04-20 04:37 | 42.16147 | 118.18939 | 37007 ft | 524 kts | 61° |
| 2026-04-20 04:37 | 42.18266 | 118.28372 | 37014 ft | 533 kts | 85° |
| 2026-04-20 04:38 | 42.18490 | 118.38386 | 37003 ft | 535 kts | 88° |
| 2026-04-20 04:38 | 42.18639 | 118.48355 | 36998 ft | 535 kts | 88° |
| 2026-04-20 04:39 | 42.18759 | 118.58393 | 36982 ft | 535 kts | 89° |
| 2026-04-20 04:39 | 42.18871 | 118.68431 | 36990 ft | 535 kts | 89° |
| 2026-04-20 04:40 | 42.18807 | 118.78458 | 36975 ft | 534 kts | 99° |
| 2026-04-20 04:40 | 42.17935 | 118.83267 | 36972 ft | 525 kts | 116° |
| 2026-04-20 04:40 | 42.16332 | 118.87646 | 36994 ft | 522 kts | 122° |
| 2026-04-20 04:41 | 42.12943 | 118.96303 | 36980 ft | 521 kts | 123° |
| 2026-04-20 04:41 | 42.09504 | 119.04893 | 36986 ft | 520 kts | 123° |
| 2026-04-20 04:42 | 42.06062 | 119.13446 | 36978 ft | 518 kts | 123° |
| 2026-04-20 04:42 | 42.02627 | 119.21957 | 36992 ft | 517 kts | 123° |
| 2026-04-20 04:43 | 41.99209 | 119.30401 | 36978 ft | 516 kts | 124° |
| 2026-04-20 04:43 | 41.95771 | 119.38870 | 36991 ft | 516 kts | 124° |
| 2026-04-20 04:44 | 41.92384 | 119.47376 | 36983 ft | 516 kts | 123° |
| 2026-04-20 04:44 | 41.89010 | 119.55869 | 36985 ft | 515 kts | 123° |
| 2026-04-20 04:45 | 41.85633 | 119.64341 | 36970 ft | 514 kts | 123° |
| 2026-04-20 04:45 | 41.82257 | 119.72784 | 36985 ft | 513 kts | 123° |
| 2026-04-20 04:46 | 41.78882 | 119.81199 | 36981 ft | 512 kts | 123° |
| 2026-04-20 04:46 | 41.75506 | 119.89596 | 36992 ft | 511 kts | 123° |
| 2026-04-20 04:47 | 41.72147 | 119.97924 | 36976 ft | 510 kts | 122° |
| 2026-04-20 04:47 | 41.68770 | 120.06273 | 36991 ft | 510 kts | 122° |
| 2026-04-20 04:48 | 41.65394 | 120.14597 | 36973 ft | 509 kts | 122° |
| 2026-04-20 04:48 | 41.62013 | 120.22908 | 36992 ft | 509 kts | 123° |
| 2026-04-20 04:49 | 41.58618 | 120.31233 | 36974 ft | 509 kts | 123° |
| 2026-04-20 04:49 | 41.55289 | 120.39580 | 36982 ft | 511 kts | 116° |
| 2026-04-20 04:49 | 41.54207 | 120.44118 | 36986 ft | 516 kts | 100° |
| 2026-04-20 04:50 | 41.54024 | 120.48902 | 37001 ft | 518 kts | 85° |
| 2026-04-20 04:50 | 41.54495 | 120.58527 | 37013 ft | 521 kts | 85° |
| 2026-04-20 04:51 | 41.54993 | 120.68199 | 36991 ft | 522 kts | 85° |
| 2026-04-20 04:51 | 41.55491 | 120.77823 | 36996 ft | 523 kts | 85° |
| 2026-04-20 04:52 | 41.55984 | 120.87514 | 36989 ft | 522 kts | 85° |
| 2026-04-20 04:52 | 41.56470 | 120.97197 | 37001 ft | 521 kts | 85° |
| 2026-04-20 04:53 | 41.56944 | 121.06828 | 36986 ft | 519 kts | 85° |
| 2026-04-20 04:53 | 41.57412 | 121.16427 | 37003 ft | 517 kts | 84° |
| 2026-04-20 04:54 | 41.58173 | 121.25955 | 36997 ft | 515 kts | 83° |
| 2026-04-20 04:54 | 41.58910 | 121.35450 | 37004 ft | 513 kts | 83° |
| 2026-04-20 04:55 | 41.59630 | 121.44866 | 36999 ft | 512 kts | 83° |
| 2026-04-20 04:55 | 41.60344 | 121.54321 | 37003 ft | 511 kts | 83° |
| 2026-04-20 04:56 | 41.61051 | 121.63771 | 36991 ft | 510 kts | 83° |
| 2026-04-20 04:56 | 41.61747 | 121.73198 | 37010 ft | 508 kts | 83° |
| 2026-04-20 04:57 | 41.62434 | 121.82596 | 37011 ft | 508 kts | 83° |
| 2026-04-20 04:57 | 41.63112 | 121.91991 | 37015 ft | 508 kts | 83° |
| 2026-04-20 04:58 | 41.63784 | 122.01388 | 37003 ft | 507 kts | 83° |
| 2026-04-20 04:58 | 41.64385 | 122.10790 | 37006 ft | 508 kts | 90° |
| 2026-04-20 04:59 | 41.63497 | 122.20158 | 36996 ft | 509 kts | 98° |
| 2026-04-20 04:59 | 41.62463 | 122.29516 | 37017 ft | 508 kts | 98° |
| 2026-04-20 05:00 | 41.61398 | 122.38841 | 37011 ft | 507 kts | 98° |
| 2026-04-20 05:00 | 41.60328 | 122.48142 | 37017 ft | 506 kts | 98° |
| 2026-04-20 05:01 | 41.59258 | 122.57368 | 37012 ft | 505 kts | 98° |
| 2026-04-20 05:01 | 41.58177 | 122.66623 | 37025 ft | 504 kts | 98° |
| 2026-04-20 05:02 | 41.57091 | 122.75849 | 37015 ft | 502 kts | 98° |
| 2026-04-20 05:02 | 41.55999 | 122.85068 | 37024 ft | 501 kts | 98° |
| 2026-04-20 05:03 | 41.54903 | 122.94256 | 37010 ft | 501 kts | 98° |
| 2026-04-20 05:03 | 41.53987 | 123.01882 | 37026 ft | 500 kts | 98° |
| 2026-04-20 05:04 | 41.52693 | 123.12580 | 37042 ft | 499 kts | 98° |
| 2026-04-20 05:04 | 41.51589 | 123.21650 | 37034 ft | 498 kts | 98° |
| 2026-04-20 05:05 | 41.50510 | 123.30771 | 37046 ft | 497 kts | 97° |
| 2026-04-20 05:05 | 41.49671 | 123.38353 | 37038 ft | 496 kts | 97° |
| 2026-04-20 05:06 | 41.48648 | 123.47454 | 37049 ft | 495 kts | 97° |
| 2026-04-20 05:06 | 41.47620 | 123.56532 | 37037 ft | 495 kts | 97° |
| 2026-04-20 05:07 | 41.46587 | 123.65588 | 37046 ft | 493 kts | 97° |
| 2026-04-20 05:07 | 41.45549 | 123.74625 | 37033 ft | 492 kts | 97° |
| 2026-04-20 05:08 | 41.44504 | 123.83645 | 37034 ft | 492 kts | 98° |
| 2026-04-20 05:08 | 41.43456 | 123.92644 | 37022 ft | 491 kts | 98° |
| 2026-04-20 05:09 | 41.42368 | 124.01573 | 37020 ft | 491 kts | 103° |
| 2026-04-20 05:09 | 41.41227 | 124.05843 | 37011 ft | 489 kts | 118° |
| 2026-04-20 05:09 | 41.39365 | 124.09620 | 37021 ft | 486 kts | 133° |
| 2026-04-20 05:09 | 41.36922 | 124.12682 | 37015 ft | 480 kts | 147° |
| 2026-04-20 05:10 | 41.34070 | 124.14948 | 37028 ft | 475 kts | 158° |
| 2026-04-20 05:10 | 41.31013 | 124.16479 | 36998 ft | 466 kts | 172° |
| 2026-04-20 05:10 | 41.27827 | 124.17109 | 37021 ft | 463 kts | 178° |
| 2026-04-20 05:11 | 41.21414 | 124.17895 | 37024 ft | 462 kts | 180° |
| 2026-04-20 05:11 | 41.15011 | 124.18495 | 37008 ft | 461 kts | 181° |
| 2026-04-20 05:12 | 41.08607 | 124.19040 | 37034 ft | 460 kts | 181° |
| 2026-04-20 05:12 | 41.02208 | 124.19700 | 37020 ft | 461 kts | 179° |
| 2026-04-20 05:13 | 40.95848 | 124.20433 | 37032 ft | 462 kts | 180° |
| 2026-04-20 05:13 | 40.89454 | 124.21159 | 37025 ft | 461 kts | 180° |
| 2026-04-20 05:14 | 40.83056 | 124.21884 | 37033 ft | 461 kts | 180° |
| 2026-04-20 05:14 | 40.76664 | 124.22608 | 36859 ft | 461 kts | 180° |
| 2026-04-20 05:14 | 40.73469 | 124.22968 | 36585 ft | 460 kts | 180° |
| 2026-04-20 05:15 | 40.70283 | 124.23328 | 36280 ft | 457 kts | 180° |
| 2026-04-20 05:15 | 40.67111 | 124.23685 | 35376 ft | 461 kts | 180° |
| 2026-04-20 05:15 | 40.63884 | 124.24048 | 34365 ft | 470 kts | 181° |
| 2026-04-20 05:15 | 40.60611 | 124.24417 | 33603 ft | 472 kts | 181° |
| 2026-04-20 05:16 | 40.57358 | 124.24784 | 33080 ft | 466 kts | 181° |
| 2026-04-20 05:16 | 40.54141 | 124.25145 | 32550 ft | 462 kts | 181° |
| 2026-04-20 05:16 | 40.50926 | 124.25506 | 31913 ft | 464 kts | 180° |
| 2026-04-20 05:16 | 40.47719 | 124.25865 | 31297 ft | 461 kts | 180° |
| 2026-04-20 05:17 | 40.44530 | 124.26223 | 30772 ft | 457 kts | 180° |
| 2026-04-20 05:17 | 40.41379 | 124.26575 | 30265 ft | 452 kts | 180° |
| 2026-04-20 05:17 | 40.38250 | 124.26925 | 29648 ft | 449 kts | 180° |
| 2026-04-20 05:17 | 40.35147 | 124.27272 | 29035 ft | 446 kts | 180° |
| 2026-04-20 05:18 | 40.32081 | 124.27799 | 28447 ft | 447 kts | 171° |
| 2026-04-20 05:18 | 40.29204 | 124.29264 | 27889 ft | 452 kts | 154° |
| 2026-04-20 05:18 | 40.26672 | 124.31774 | 27450 ft | 452 kts | 137° |
| 2026-04-20 05:18 | 40.24778 | 124.34973 | 26972 ft | 451 kts | 121° |
| 2026-04-20 05:19 | 40.23561 | 124.38736 | 26474 ft | 449 kts | 108° |
| 2026-04-20 05:19 | 40.22666 | 124.42630 | 25959 ft | 445 kts | 108° |
| 2026-04-20 05:19 | 40.21796 | 124.46501 | 25462 ft | 442 kts | 107° |
| 2026-04-20 05:19 | 40.20863 | 124.50308 | 24902 ft | 438 kts | 116° |
| 2026-04-20 05:20 | 40.19332 | 124.53715 | 24353 ft | 432 kts | 126° |
| 2026-04-20 05:20 | 40.17706 | 124.57007 | 23898 ft | 428 kts | 126° |
| 2026-04-20 05:20 | 40.16094 | 124.60259 | 23419 ft | 424 kts | 126° |
| 2026-04-20 05:20 | 40.14483 | 124.63473 | 22864 ft | 421 kts | 126° |
| 2026-04-20 05:21 | 40.12884 | 124.66653 | 22388 ft | 416 kts | 127° |
| 2026-04-20 05:21 | 40.11303 | 124.69792 | 21921 ft | 411 kts | 127° |
| 2026-04-20 05:21 | 40.09741 | 124.72890 | 21465 ft | 406 kts | 127° |
| 2026-04-20 05:21 | 40.08195 | 124.75950 | 21003 ft | 402 kts | 127° |
| 2026-04-20 05:22 | 40.06663 | 124.78979 | 20558 ft | 398 kts | 127° |
| 2026-04-20 05:22 | 40.05145 | 124.81979 | 20115 ft | 397 kts | 127° |
| 2026-04-20 05:22 | 40.03619 | 124.84992 | 19659 ft | 397 kts | 127° |
| 2026-04-20 05:22 | 40.02097 | 124.87994 | 19231 ft | 395 kts | 128° |
| 2026-04-20 05:23 | 40.00581 | 124.90982 | 18795 ft | 393 kts | 128° |
| 2026-04-20 05:23 | 39.99073 | 124.93950 | 18351 ft | 392 kts | 128° |
| 2026-04-20 05:23 | 39.97570 | 124.96907 | 17875 ft | 391 kts | 128° |
| 2026-04-20 05:23 | 39.96090 | 124.99817 | 17424 ft | 388 kts | 128° |
| 2026-04-20 05:24 | 39.94601 | 125.02740 | 16982 ft | 386 kts | 128° |
| 2026-04-20 05:24 | 39.93119 | 125.05647 | 16563 ft | 384 kts | 128° |
| 2026-04-20 05:24 | 39.91645 | 125.08537 | 16127 ft | 381 kts | 128° |
| 2026-04-20 05:24 | 39.90181 | 125.11403 | 15705 ft | 379 kts | 128° |
| 2026-04-20 05:25 | 39.88726 | 125.14247 | 15290 ft | 377 kts | 128° |
| 2026-04-20 05:25 | 39.87276 | 125.17082 | 14862 ft | 375 kts | 127° |
| 2026-04-20 05:25 | 39.85835 | 125.19898 | 14435 ft | 372 kts | 127° |
| 2026-04-20 05:25 | 39.84401 | 125.22694 | 14015 ft | 369 kts | 127° |
| 2026-04-20 05:26 | 39.82983 | 125.25458 | 13592 ft | 365 kts | 127° |
| 2026-04-20 05:26 | 39.81577 | 125.28197 | 13126 ft | 362 kts | 127° |
| 2026-04-20 05:26 | 39.80187 | 125.30902 | 12691 ft | 358 kts | 127° |
| 2026-04-20 05:26 | 39.78820 | 125.33560 | 12476 ft | 347 kts | 128° |
| 2026-04-20 05:27 | 39.77498 | 125.36129 | 12344 ft | 335 kts | 128° |
| 2026-04-20 05:27 | 39.76224 | 125.38604 | 12217 ft | 323 kts | 128° |
| 2026-04-20 05:27 | 39.74993 | 125.40992 | 12108 ft | 312 kts | 128° |
| 2026-04-20 05:27 | 39.73672 | 125.43141 | 11877 ft | 306 kts | 144° |
| 2026-04-20 05:28 | 39.71846 | 125.44450 | 11547 ft | 296 kts | 169° |
| 2026-04-20 05:28 | 39.69845 | 125.45012 | 11313 ft | 295 kts | 174° |
| 2026-04-20 05:28 | 39.67829 | 125.45509 | 11066 ft | 294 kts | 175° |
| 2026-04-20 05:28 | 39.65819 | 125.45973 | 10838 ft | 294 kts | 175° |
| 2026-04-20 05:29 | 39.63801 | 125.46423 | 10584 ft | 293 kts | 175° |
| 2026-04-20 05:29 | 39.61800 | 125.46857 | 10349 ft | 289 kts | 175° |
| 2026-04-20 05:29 | 39.59834 | 125.47277 | 10125 ft | 282 kts | 176° |
| 2026-04-20 05:29 | 39.57917 | 125.47682 | 9891 ft | 276 kts | 176° |
| 2026-04-20 05:30 | 39.56018 | 125.48081 | 9660 ft | 278 kts | 176° |
| 2026-04-20 05:30 | 39.54103 | 125.48483 | 9401 ft | 278 kts | 176° |
| 2026-04-20 05:30 | 39.52215 | 125.48878 | 9164 ft | 278 kts | 176° |
| 2026-04-20 05:30 | 39.50302 | 125.49279 | 8932 ft | 278 kts | 176° |
| 2026-04-20 05:31 | 39.48398 | 125.49677 | 8726 ft | 278 kts | 176° |
| 2026-04-20 05:31 | 39.46489 | 125.50077 | 8490 ft | 278 kts | 175° |
| 2026-04-20 05:31 | 39.44582 | 125.50476 | 8258 ft | 278 kts | 175° |
| 2026-04-20 05:31 | 39.42676 | 125.50873 | 8030 ft | 276 kts | 175° |
| 2026-04-20 05:32 | 39.40796 | 125.51268 | 7812 ft | 271 kts | 175° |
| 2026-04-20 05:32 | 39.38943 | 125.51653 | 7578 ft | 268 kts | 175° |
| 2026-04-20 05:32 | 39.37122 | 125.52033 | 7374 ft | 262 kts | 175° |
| 2026-04-20 05:32 | 39.35343 | 125.52402 | 7199 ft | 256 kts | 176° |
| 2026-04-20 05:33 | 39.33585 | 125.52769 | 6923 ft | 256 kts | 175° |
| 2026-04-20 05:33 | 39.31829 | 125.53136 | 6652 ft | 256 kts | 175° |
| 2026-04-20 05:33 | 39.30076 | 125.53499 | 6396 ft | 254 kts | 175° |
| 2026-04-20 05:33 | 39.28337 | 125.53860 | 6144 ft | 252 kts | 175° |
| 2026-04-20 05:34 | 39.26607 | 125.54221 | 5884 ft | 251 kts | 175° |
| 2026-04-20 05:34 | 39.24892 | 125.54577 | 5632 ft | 249 kts | 175° |
| 2026-04-20 05:34 | 39.21512 | 125.55420 | 5206 ft | 247 kts | 166° |
| 2026-04-20 05:35 | 39.19871 | 125.56101 | 4928 ft | 249 kts | 165° |
| 2026-04-20 05:35 | 39.18234 | 125.56768 | 4651 ft | 243 kts | 165° |
| 2026-04-20 05:35 | 39.16651 | 125.57399 | 4358 ft | 233 kts | 166° |
| 2026-04-20 05:35 | 39.15144 | 125.57995 | 4152 ft | 225 kts | 166° |
| 2026-04-20 05:36 | 39.13666 | 125.58572 | 3940 ft | 217 kts | 166° |
| 2026-04-20 05:36 | 39.12235 | 125.59129 | 3691 ft | 213 kts | 166° |
| 2026-04-20 05:36 | 39.10827 | 125.59680 | 3548 ft | 210 kts | 166° |
| 2026-04-20 05:36 | 39.09429 | 125.60219 | 3310 ft | 211 kts | 166° |
| 2026-04-20 05:37 | 39.08033 | 125.60823 | 3102 ft | 213 kts | 155° |
| 2026-04-20 05:37 | 39.07000 | 125.62129 | 2849 ft | 208 kts | 114° |
| 2026-04-20 05:37 | 39.06724 | 125.63904 | 2714 ft | 201 kts | 79° |
| 2026-04-20 05:37 | 39.06999 | 125.65643 | 2687 ft | 198 kts | 69° |
| 2026-04-20 05:38 | 39.07352 | 125.67361 | 2658 ft | 199 kts | 68° |
| 2026-04-20 05:38 | 39.07727 | 125.69072 | 2530 ft | 195 kts | 65° |
| 2026-04-20 05:38 | 39.08457 | 125.70428 | 2144 ft | 185 kts | 28° |
| 2026-04-20 05:38 | 39.09571 | 125.70844 | 2060 ft | 150 kts | 352° |
| 2026-04-20 05:39 | 39.10615 | 125.70679 | 1897 ft | 156 kts | 347° |
| 2026-04-20 05:39 | 39.11725 | 125.70484 | 1353 ft | 155 kts | 342° |
| 2026-04-20 05:39 | 39.12718 | 125.70117 | 1310 ft | 149 kts | 336° |
| 2026-04-20 05:39 | 39.13704 | 125.69718 | 1170 ft | 144 kts | 339° |
| 2026-04-20 05:40 | 39.14638 | 125.69346 | 1035 ft | 138 kts | 338° |
| 2026-04-20 05:40 | 39.15551 | 125.68991 | 833 ft | 137 kts | 338° |
| 2026-04-20 05:40 | 39.16456 | 125.68627 | 664 ft | 136 kts | 337° |
| 2026-04-20 05:40 | 39.17360 | 125.68265 | 484 ft | 136 kts | 339° |
| 2026-04-20 05:41 | 39.18264 | 125.67927 | 279 ft | 134 kts | 335° |
| 2026-04-20 05:41 | 39.19150 | 125.67576 | 114 ft | 132 kts | 336° |
| 2026-04-20 05:41 | 39.19941 | 125.67255 | 92 ft | 103 kts | 336° |
| 2026-04-20 05:41 | 39.20483 | 125.67034 | 91 ft | 60 kts | 348° |
| 2026-04-20 05:42 | 39.20759 | 125.66943 | 90 ft | 32 kts | 343° |
| 2026-04-20 05:42 | 39.20985 | 125.66854 | 91 ft | 34 kts | 342° |
| 2026-04-20 05:42 | 39.21194 | 125.66772 | 91 ft | 21 kts | 343° |
| 2026-04-20 05:42 | 39.21324 | 125.66766 | 90 ft | 19 kts | 10° |
| 2026-04-20 05:43 | 39.21445 | 125.66799 | 91 ft | 13 kts | 18° |
| 2026-04-20 05:43 | 39.21491 | 125.66869 | 93 ft | 11 kts | 86° |
| 2026-04-20 05:43 | 39.21433 | 125.66936 | 90 ft | 13 kts | 162° |
| 2026-04-20 05:43 | 39.21333 | 125.66975 | 91 ft | 17 kts | 163° |
| 2026-04-20 05:44 | 39.21210 | 125.67023 | 91 ft | 20 kts | 163° |
| 2026-04-20 05:44 | 39.21067 | 125.67078 | 92 ft | 23 kts | 163° |
| 2026-04-20 05:44 | 39.20903 | 125.67143 | 91 ft | 26 kts | 162° |
| 2026-04-20 05:44 | 39.20721 | 125.67215 | 90 ft | 28 kts | 163° |
| 2026-04-20 05:45 | 39.20553 | 125.67282 | 91 ft | 24 kts | 163° |
| 2026-04-20 05:45 | 39.20412 | 125.67337 | 91 ft | 18 kts | 163° |
| 2026-04-20 05:45 | 39.20292 | 125.67386 | 89 ft | 19 kts | 163° |
| 2026-04-20 05:45 | 39.20193 | 125.67424 | 89 ft | 15 kts | 162° |
| 2026-04-20 05:46 | 39.20109 | 125.67458 | 90 ft | 8 kts | 163° |
| 2026-04-20 05:46 | 39.20084 | 125.67470 | 92 ft | 4 kts | 145° |
| 2026-04-20 05:46 | 39.20077 | 125.67499 | 91 ft | 3 kts | 82° |
| 2026-04-20 05:46 | 39.20082 | 125.67521 | 93 ft | 2 kts | 73° |
| 2026-04-20 05:47 | 39.20086 | 125.67540 | 92 ft | 1 kts | 73° |
| 2026-04-20 05:47 | 39.20087 | 125.67544 | 92 ft | 0 kts | 73° |